TUI1234 EGGP-LFPO
Flight info
| Callsign | TUI1234 |
|---|---|
| Flight time | 1h 11m |
| Altitude | 29000 |
| Route | NANTI L8 STAFA P18 TELBA L151 KIDLI UN859 SITET/N0442F270 UN859 LGL/N0395F190 A34 BOBSA |
| Aircraft | B38M/M-SDE1FGHILORVWXY/HB1 |
Departure
| Time | 2026-05-07 16:00 |
|---|---|
| Airport | Liverpool John Lennon Airport (EGGP) |
Arrival
| Time | 2026-05-07 17:11 |
|---|---|
| Airport | Paris-Orly Airport (LFPO) |
| Time | Latitude | Longitude | Altitude | Speed | Heading |
|---|---|---|---|---|---|
| 2026-05-07 15:28 | 53.33585 | -2.85188 | 93 ft | 0 kts | 265° |
| 2026-05-07 15:32 | 53.33585 | -2.85187 | 93 ft | 0 kts | 265° |
| 2026-05-07 15:46 | 53.33586 | -2.85154 | 93 ft | 4 kts | 266° |
| 2026-05-07 15:46 | 53.33589 | -2.85110 | 93 ft | 4 kts | 246° |
| 2026-05-07 15:46 | 53.33604 | -2.85078 | 93 ft | 4 kts | 203° |
| 2026-05-07 15:47 | 53.33621 | -2.85072 | 93 ft | 0 kts | 175° |
| 2026-05-07 15:51 | 53.33585 | -2.85067 | 93 ft | 6 kts | 175° |
| 2026-05-07 15:51 | 53.33542 | -2.85071 | 94 ft | 6 kts | 201° |
| 2026-05-07 15:51 | 53.33522 | -2.85133 | 96 ft | 6 kts | 261° |
| 2026-05-07 15:51 | 53.33517 | -2.85219 | 94 ft | 11 kts | 265° |
| 2026-05-07 15:52 | 53.33512 | -2.85349 | 93 ft | 11 kts | 266° |
| 2026-05-07 15:52 | 53.33507 | -2.85476 | 93 ft | 11 kts | 265° |
| 2026-05-07 15:52 | 53.33500 | -2.85601 | 95 ft | 11 kts | 266° |
| 2026-05-07 15:52 | 53.33495 | -2.85727 | 97 ft | 11 kts | 265° |
| 2026-05-07 15:53 | 53.33487 | -2.85864 | 93 ft | 14 kts | 265° |
| 2026-05-07 15:53 | 53.33479 | -2.86027 | 93 ft | 14 kts | 265° |
| 2026-05-07 15:53 | 53.33472 | -2.86185 | 93 ft | 14 kts | 266° |
| 2026-05-07 15:53 | 53.33466 | -2.86327 | 93 ft | 0 kts | 265° |
| 2026-05-07 15:54 | 53.33465 | -2.86352 | 93 ft | 8 kts | 265° |
| 2026-05-07 15:54 | 53.33456 | -2.86498 | 93 ft | 17 kts | 265° |
| 2026-05-07 15:54 | 53.33444 | -2.86653 | 95 ft | 12 kts | 250° |
| 2026-05-07 15:54 | 53.33415 | -2.86711 | 93 ft | 0 kts | 211° |
| 2026-05-07 15:58 | 53.33392 | -2.86730 | 94 ft | 8 kts | 196° |
| 2026-05-07 15:58 | 53.33337 | -2.86712 | 95 ft | 8 kts | 155° |
| 2026-05-07 15:58 | 53.33288 | -2.86656 | 94 ft | 11 kts | 118° |
| 2026-05-07 15:58 | 53.33290 | -2.86555 | 93 ft | 0 kts | 85° |
| 2026-05-07 15:59 | 53.33291 | -2.86539 | 93 ft | 11 kts | 85° |
| 2026-05-07 15:59 | 53.33317 | -2.85973 | 93 ft | 86 kts | 85° |
| 2026-05-07 15:59 | 53.33381 | -2.84598 | 97 ft | 150 kts | 85° |
| 2026-05-07 15:59 | 53.33463 | -2.82593 | 335 ft | 184 kts | 91° |
| 2026-05-07 16:00 | 53.33350 | -2.80375 | 1008 ft | 202 kts | 106° |
| 2026-05-07 16:00 | 53.33073 | -2.77935 | 1506 ft | 221 kts | 108° |
| 2026-05-07 16:00 | 53.32396 | -2.75607 | 2042 ft | 231 kts | 134° |
| 2026-05-07 16:00 | 53.31142 | -2.73825 | 2603 ft | 244 kts | 150° |
| 2026-05-07 16:01 | 53.29618 | -2.72374 | 3158 ft | 259 kts | 154° |
| 2026-05-07 16:01 | 53.27982 | -2.70919 | 3681 ft | 268 kts | 154° |
| 2026-05-07 16:01 | 53.26359 | -2.69472 | 4037 ft | 260 kts | 154° |
| 2026-05-07 16:01 | 53.24799 | -2.68065 | 4369 ft | 252 kts | 153° |
| 2026-05-07 16:02 | 53.23261 | -2.66667 | 4700 ft | 253 kts | 153° |
| 2026-05-07 16:02 | 53.21716 | -2.65259 | 5027 ft | 253 kts | 153° |
| 2026-05-07 16:02 | 53.20166 | -2.63845 | 5363 ft | 256 kts | 154° |
| 2026-05-07 16:02 | 53.18594 | -2.62409 | 5697 ft | 259 kts | 153° |
| 2026-05-07 16:03 | 53.17077 | -2.60785 | 6008 ft | 260 kts | 147° |
| 2026-05-07 16:03 | 53.15600 | -2.59019 | 6352 ft | 262 kts | 147° |
| 2026-05-07 16:03 | 53.14110 | -2.57241 | 6682 ft | 264 kts | 147° |
| 2026-05-07 16:03 | 53.12623 | -2.55465 | 6997 ft | 264 kts | 147° |
| 2026-05-07 16:04 | 53.11124 | -2.53679 | 7317 ft | 266 kts | 147° |
| 2026-05-07 16:04 | 53.09612 | -2.51885 | 7641 ft | 269 kts | 147° |
| 2026-05-07 16:04 | 53.08076 | -2.50072 | 7920 ft | 270 kts | 147° |
| 2026-05-07 16:04 | 53.06552 | -2.48272 | 8458 ft | 269 kts | 148° |
| 2026-05-07 16:05 | 53.05013 | -2.46460 | 9019 ft | 274 kts | 148° |
| 2026-05-07 16:05 | 53.03451 | -2.44622 | 9677 ft | 276 kts | 148° |
| 2026-05-07 16:05 | 53.01878 | -2.42771 | 10268 ft | 279 kts | 148° |
| 2026-05-07 16:05 | 53.00246 | -2.40857 | 10449 ft | 298 kts | 148° |
| 2026-05-07 16:06 | 52.98502 | -2.38815 | 10615 ft | 316 kts | 148° |
| 2026-05-07 16:06 | 52.96655 | -2.36651 | 10750 ft | 334 kts | 147° |
| 2026-05-07 16:06 | 52.94705 | -2.34364 | 10894 ft | 351 kts | 147° |
| 2026-05-07 16:06 | 52.92660 | -2.31967 | 11024 ft | 367 kts | 147° |
| 2026-05-07 16:07 | 52.90547 | -2.29497 | 11429 ft | 375 kts | 147° |
| 2026-05-07 16:07 | 52.88390 | -2.27032 | 12001 ft | 376 kts | 151° |
| 2026-05-07 16:07 | 52.86015 | -2.25441 | 12433 ft | 378 kts | 171° |
| 2026-05-07 16:07 | 52.83410 | -2.25282 | 13178 ft | 372 kts | 187° |
| 2026-05-07 16:08 | 52.80870 | -2.26139 | 13783 ft | 374 kts | 194° |
| 2026-05-07 16:08 | 52.78324 | -2.27213 | 14130 ft | 382 kts | 194° |
| 2026-05-07 16:08 | 52.75727 | -2.28288 | 14549 ft | 386 kts | 194° |
| 2026-05-07 16:08 | 52.73119 | -2.29321 | 15050 ft | 386 kts | 193° |
| 2026-05-07 16:09 | 52.70490 | -2.30337 | 15403 ft | 390 kts | 193° |
| 2026-05-07 16:09 | 52.67771 | -2.30890 | 15597 ft | 399 kts | 178° |
| 2026-05-07 16:09 | 52.65053 | -2.29992 | 16073 ft | 400 kts | 162° |
| 2026-05-07 16:09 | 52.62564 | -2.27959 | 16527 ft | 403 kts | 149° |
| 2026-05-07 16:10 | 52.60234 | -2.25365 | 16889 ft | 407 kts | 147° |
| 2026-05-07 16:10 | 52.57893 | -2.22700 | 17133 ft | 412 kts | 147° |
| 2026-05-07 16:10 | 52.55516 | -2.20012 | 17462 ft | 415 kts | 147° |
| 2026-05-07 16:10 | 52.53126 | -2.17345 | 17872 ft | 417 kts | 148° |
| 2026-05-07 16:11 | 52.50707 | -2.14677 | 18224 ft | 420 kts | 148° |
| 2026-05-07 16:11 | 52.48269 | -2.12010 | 18481 ft | 423 kts | 148° |
| 2026-05-07 16:11 | 52.45817 | -2.09336 | 18757 ft | 426 kts | 148° |
| 2026-05-07 16:11 | 52.43346 | -2.06645 | 19110 ft | 426 kts | 148° |
| 2026-05-07 16:12 | 52.40870 | -2.03953 | 19436 ft | 428 kts | 148° |
| 2026-05-07 16:12 | 52.38378 | -2.01243 | 19724 ft | 430 kts | 148° |
| 2026-05-07 16:12 | 52.35886 | -1.98535 | 19998 ft | 432 kts | 148° |
| 2026-05-07 16:12 | 52.33506 | -1.95956 | 20286 ft | 434 kts | 148° |
| 2026-05-07 16:13 | 52.30991 | -1.93232 | 20582 ft | 435 kts | 148° |
| 2026-05-07 16:13 | 52.28462 | -1.90498 | 20878 ft | 437 kts | 148° |
| 2026-05-07 16:13 | 52.25926 | -1.87762 | 21111 ft | 439 kts | 148° |
| 2026-05-07 16:13 | 52.23394 | -1.85050 | 21319 ft | 442 kts | 149° |
| 2026-05-07 16:14 | 52.20812 | -1.82295 | 21582 ft | 444 kts | 149° |
| 2026-05-07 16:14 | 52.18229 | -1.79543 | 21907 ft | 445 kts | 149° |
| 2026-05-07 16:14 | 52.15630 | -1.76773 | 22193 ft | 446 kts | 149° |
| 2026-05-07 16:14 | 52.13037 | -1.74012 | 22411 ft | 448 kts | 149° |
| 2026-05-07 16:15 | 52.10420 | -1.71231 | 22645 ft | 450 kts | 149° |
| 2026-05-07 16:15 | 52.07780 | -1.68435 | 22900 ft | 452 kts | 149° |
| 2026-05-07 16:15 | 52.05139 | -1.65652 | 23192 ft | 452 kts | 149° |
| 2026-05-07 16:15 | 52.02489 | -1.62879 | 23444 ft | 453 kts | 149° |
| 2026-05-07 16:16 | 51.99834 | -1.60084 | 23634 ft | 456 kts | 149° |
| 2026-05-07 16:16 | 51.97172 | -1.57255 | 23786 ft | 459 kts | 149° |
| 2026-05-07 16:16 | 51.94577 | -1.54491 | 24002 ft | 459 kts | 149° |
| 2026-05-07 16:16 | 51.91908 | -1.51653 | 24239 ft | 459 kts | 149° |
| 2026-05-07 16:17 | 51.89229 | -1.48816 | 24444 ft | 460 kts | 149° |
| 2026-05-07 16:17 | 51.86546 | -1.45985 | 24606 ft | 462 kts | 149° |
| 2026-05-07 16:17 | 51.83848 | -1.43156 | 24747 ft | 464 kts | 149° |
| 2026-05-07 16:17 | 51.81125 | -1.40309 | 24912 ft | 466 kts | 149° |
| 2026-05-07 16:18 | 51.78428 | -1.37519 | 25094 ft | 466 kts | 151° |
| 2026-05-07 16:18 | 51.75502 | -1.35135 | 25166 ft | 466 kts | 161° |
| 2026-05-07 16:18 | 51.72408 | -1.33575 | 25362 ft | 464 kts | 167° |
| 2026-05-07 16:18 | 51.69316 | -1.32160 | 25770 ft | 460 kts | 166° |
| 2026-05-07 16:19 | 51.66360 | -1.30716 | 26036 ft | 459 kts | 165° |
| 2026-05-07 16:19 | 51.63332 | -1.29184 | 26160 ft | 462 kts | 165° |
| 2026-05-07 16:19 | 51.60273 | -1.27620 | 26276 ft | 464 kts | 165° |
| 2026-05-07 16:19 | 51.57196 | -1.26048 | 26532 ft | 462 kts | 165° |
| 2026-05-07 16:20 | 51.54137 | -1.24493 | 26881 ft | 459 kts | 165° |
| 2026-05-07 16:20 | 51.51099 | -1.22957 | 27192 ft | 458 kts | 165° |
| 2026-05-07 16:20 | 51.48080 | -1.21326 | 27338 ft | 460 kts | 160° |
| 2026-05-07 16:20 | 51.45133 | -1.19202 | 27440 ft | 464 kts | 156° |
| 2026-05-07 16:21 | 51.42238 | -1.16933 | 27725 ft | 462 kts | 156° |
| 2026-05-07 16:21 | 51.39391 | -1.14747 | 28097 ft | 458 kts | 157° |
| 2026-05-07 16:21 | 51.36500 | -1.12594 | 28360 ft | 457 kts | 158° |
| 2026-05-07 16:21 | 51.33597 | -1.10475 | 28500 ft | 459 kts | 158° |
| 2026-05-07 16:22 | 51.30686 | -1.08360 | 28642 ft | 461 kts | 158° |
| 2026-05-07 16:22 | 51.27775 | -1.06238 | 28891 ft | 459 kts | 158° |
| 2026-05-07 16:22 | 51.24869 | -1.04117 | 29129 ft | 458 kts | 158° |
| 2026-05-07 16:22 | 51.21952 | -1.01993 | 28985 ft | 462 kts | 158° |
| 2026-05-07 16:23 | 51.19039 | -0.99876 | 29084 ft | 458 kts | 158° |
| 2026-05-07 16:23 | 51.13288 | -0.95705 | 29070 ft | 456 kts | 158° |
| 2026-05-07 16:24 | 51.07486 | -0.91508 | 29051 ft | 455 kts | 158° |
| 2026-05-07 16:24 | 51.01771 | -0.87384 | 29045 ft | 454 kts | 158° |
| 2026-05-07 16:25 | 50.96008 | -0.83236 | 29048 ft | 454 kts | 158° |
| 2026-05-07 16:25 | 50.91187 | -0.79774 | 29059 ft | 455 kts | 158° |
| 2026-05-07 16:26 | 50.85452 | -0.75632 | 29039 ft | 457 kts | 156° |
| 2026-05-07 16:26 | 50.79976 | -0.70340 | 29089 ft | 460 kts | 149° |
| 2026-05-07 16:27 | 50.74666 | -0.64776 | 29081 ft | 461 kts | 149° |
| 2026-05-07 16:27 | 50.69279 | -0.59212 | 29080 ft | 462 kts | 149° |
| 2026-05-07 16:28 | 50.63883 | -0.53728 | 29058 ft | 463 kts | 149° |
| 2026-05-07 16:28 | 50.58461 | -0.48259 | 29042 ft | 463 kts | 149° |
| 2026-05-07 16:29 | 50.53043 | -0.42809 | 29064 ft | 462 kts | 149° |
| 2026-05-07 16:29 | 50.47773 | -0.37519 | 29044 ft | 461 kts | 150° |
| 2026-05-07 16:30 | 50.42394 | -0.32133 | 29060 ft | 460 kts | 150° |
| 2026-05-07 16:30 | 50.36994 | -0.26741 | 29053 ft | 459 kts | 150° |
| 2026-05-07 16:31 | 50.31616 | -0.21385 | 29048 ft | 458 kts | 150° |
| 2026-05-07 16:31 | 50.26243 | -0.16049 | 29053 ft | 457 kts | 150° |
| 2026-05-07 16:32 | 50.20869 | -0.10726 | 29049 ft | 457 kts | 150° |
| 2026-05-07 16:32 | 50.15501 | -0.05421 | 29046 ft | 456 kts | 150° |
| 2026-05-07 16:33 | 50.10109 | -0.00396 | 29001 ft | 454 kts | 158° |
| 2026-05-07 16:33 | 50.04092 | 0.02484 | 29101 ft | 448 kts | 168° |
| 2026-05-07 16:34 | 49.98046 | 0.04740 | 29065 ft | 450 kts | 168° |
| 2026-05-07 16:34 | 49.91940 | 0.07085 | 29044 ft | 452 kts | 168° |
| 2026-05-07 16:35 | 49.85866 | 0.09458 | 29036 ft | 453 kts | 168° |
| 2026-05-07 16:35 | 49.79752 | 0.11847 | 29047 ft | 453 kts | 168° |
| 2026-05-07 16:36 | 49.73620 | 0.14234 | 29035 ft | 454 kts | 168° |
| 2026-05-07 16:36 | 49.67506 | 0.16609 | 29051 ft | 454 kts | 168° |
| 2026-05-07 16:37 | 49.61391 | 0.19072 | 29044 ft | 454 kts | 167° |
| 2026-05-07 16:37 | 49.55405 | 0.21514 | 29049 ft | 454 kts | 167° |
| 2026-05-07 16:38 | 49.49194 | 0.24031 | 29043 ft | 453 kts | 167° |
| 2026-05-07 16:38 | 49.43112 | 0.26480 | 29012 ft | 447 kts | 167° |
| 2026-05-07 16:38 | 49.40155 | 0.27671 | 28989 ft | 432 kts | 167° |
| 2026-05-07 16:39 | 49.37300 | 0.28819 | 29010 ft | 417 kts | 167° |
| 2026-05-07 16:39 | 49.34535 | 0.29929 | 28993 ft | 403 kts | 168° |
| 2026-05-07 16:39 | 49.31867 | 0.30998 | 29009 ft | 389 kts | 168° |
| 2026-05-07 16:40 | 49.26678 | 0.33131 | 28598 ft | 397 kts | 167° |
| 2026-05-07 16:40 | 49.24001 | 0.34260 | 28011 ft | 400 kts | 167° |
| 2026-05-07 16:40 | 49.21321 | 0.35395 | 27603 ft | 401 kts | 167° |
| 2026-05-07 16:40 | 49.18607 | 0.36541 | 27105 ft | 407 kts | 167° |
| 2026-05-07 16:41 | 49.15879 | 0.37690 | 26661 ft | 407 kts | 167° |
| 2026-05-07 16:41 | 49.13149 | 0.38837 | 26191 ft | 407 kts | 167° |
| 2026-05-07 16:41 | 49.10411 | 0.39985 | 25743 ft | 407 kts | 167° |
| 2026-05-07 16:41 | 49.07682 | 0.41127 | 25293 ft | 407 kts | 167° |
| 2026-05-07 16:42 | 49.04947 | 0.42269 | 24851 ft | 406 kts | 167° |
| 2026-05-07 16:42 | 49.02228 | 0.43403 | 24417 ft | 405 kts | 167° |
| 2026-05-07 16:42 | 48.99523 | 0.44531 | 23982 ft | 399 kts | 167° |
| 2026-05-07 16:42 | 48.96861 | 0.45640 | 23548 ft | 394 kts | 167° |
| 2026-05-07 16:43 | 48.94228 | 0.46735 | 23050 ft | 391 kts | 167° |
| 2026-05-07 16:43 | 48.91605 | 0.47823 | 22570 ft | 389 kts | 167° |
| 2026-05-07 16:43 | 48.89000 | 0.48903 | 22075 ft | 388 kts | 167° |
| 2026-05-07 16:43 | 48.86401 | 0.49980 | 21613 ft | 386 kts | 167° |
| 2026-05-07 16:44 | 48.83818 | 0.51050 | 21125 ft | 385 kts | 167° |
| 2026-05-07 16:44 | 48.81241 | 0.52115 | 20667 ft | 383 kts | 167° |
| 2026-05-07 16:44 | 48.78697 | 0.53165 | 20225 ft | 381 kts | 167° |
| 2026-05-07 16:44 | 48.76148 | 0.54199 | 19784 ft | 378 kts | 167° |
| 2026-05-07 16:45 | 48.73616 | 0.55214 | 19335 ft | 376 kts | 167° |
| 2026-05-07 16:45 | 48.71195 | 0.56181 | 18918 ft | 374 kts | 167° |
| 2026-05-07 16:45 | 48.68691 | 0.57182 | 18477 ft | 372 kts | 167° |
| 2026-05-07 16:45 | 48.66230 | 0.58165 | 17955 ft | 369 kts | 167° |
| 2026-05-07 16:46 | 48.63769 | 0.59149 | 17409 ft | 363 kts | 167° |
| 2026-05-07 16:46 | 48.61376 | 0.60106 | 16884 ft | 357 kts | 167° |
| 2026-05-07 16:46 | 48.58996 | 0.61057 | 16450 ft | 349 kts | 167° |
| 2026-05-07 16:46 | 48.56713 | 0.61970 | 16473 ft | 328 kts | 168° |
| 2026-05-07 16:47 | 48.54558 | 0.62831 | 16395 ft | 314 kts | 168° |
| 2026-05-07 16:47 | 48.52464 | 0.63664 | 16432 ft | 312 kts | 168° |
| 2026-05-07 16:47 | 48.50354 | 0.64500 | 16411 ft | 315 kts | 168° |
| 2026-05-07 16:47 | 48.48236 | 0.65342 | 16430 ft | 314 kts | 168° |
| 2026-05-07 16:48 | 48.46120 | 0.66184 | 16412 ft | 314 kts | 168° |
| 2026-05-07 16:48 | 48.44009 | 0.67025 | 16422 ft | 313 kts | 168° |
| 2026-05-07 16:48 | 48.41902 | 0.67863 | 16313 ft | 315 kts | 168° |
| 2026-05-07 16:48 | 48.39751 | 0.68717 | 15623 ft | 324 kts | 167° |
| 2026-05-07 16:49 | 48.37566 | 0.69585 | 14983 ft | 326 kts | 167° |
| 2026-05-07 16:49 | 48.35356 | 0.70462 | 14285 ft | 331 kts | 167° |
| 2026-05-07 16:49 | 48.33111 | 0.71353 | 13489 ft | 337 kts | 167° |
| 2026-05-07 16:49 | 48.30863 | 0.72245 | 13173 ft | 326 kts | 167° |
| 2026-05-07 16:50 | 48.28728 | 0.73093 | 13071 ft | 310 kts | 167° |
| 2026-05-07 16:50 | 48.26705 | 0.74005 | 12797 ft | 302 kts | 158° |
| 2026-05-07 16:50 | 48.25017 | 0.75964 | 12056 ft | 314 kts | 129° |
| 2026-05-07 16:50 | 48.23889 | 0.78753 | 11579 ft | 314 kts | 117° |
| 2026-05-07 16:51 | 48.22976 | 0.81737 | 11100 ft | 313 kts | 115° |
| 2026-05-07 16:51 | 48.22136 | 0.84673 | 10997 ft | 299 kts | 115° |
| 2026-05-07 16:51 | 48.21338 | 0.87468 | 10898 ft | 285 kts | 115° |
| 2026-05-07 16:51 | 48.20575 | 0.90112 | 10899 ft | 268 kts | 115° |
| 2026-05-07 16:52 | 48.19827 | 0.92663 | 10842 ft | 267 kts | 116° |
| 2026-05-07 16:52 | 48.19073 | 0.95210 | 10786 ft | 273 kts | 116° |
| 2026-05-07 16:52 | 48.18279 | 0.97870 | 10829 ft | 285 kts | 116° |
| 2026-05-07 16:52 | 48.17458 | 1.00616 | 10853 ft | 290 kts | 115° |
| 2026-05-07 16:53 | 48.16968 | 1.03535 | 10402 ft | 303 kts | 88° |
| 2026-05-07 16:53 | 48.17336 | 1.06666 | 10232 ft | 298 kts | 77° |
| 2026-05-07 16:53 | 48.17811 | 1.09611 | 10113 ft | 291 kts | 77° |
| 2026-05-07 16:53 | 48.18262 | 1.12524 | 10021 ft | 284 kts | 78° |
| 2026-05-07 16:54 | 48.18683 | 1.15376 | 10030 ft | 280 kts | 78° |
| 2026-05-07 16:54 | 48.19096 | 1.18290 | 10023 ft | 282 kts | 79° |
| 2026-05-07 16:54 | 48.19489 | 1.21147 | 10029 ft | 286 kts | 79° |
| 2026-05-07 16:54 | 48.19884 | 1.24074 | 10025 ft | 286 kts | 79° |
| 2026-05-07 16:55 | 48.20272 | 1.26997 | 10020 ft | 284 kts | 79° |
| 2026-05-07 16:55 | 48.20655 | 1.29897 | 10012 ft | 283 kts | 80° |
| 2026-05-07 16:55 | 48.21032 | 1.32781 | 10008 ft | 282 kts | 80° |
| 2026-05-07 16:55 | 48.21408 | 1.35666 | 10025 ft | 282 kts | 80° |
| 2026-05-07 16:56 | 48.21782 | 1.38550 | 10030 ft | 282 kts | 79° |
| 2026-05-07 16:56 | 48.22157 | 1.41449 | 10028 ft | 283 kts | 79° |
| 2026-05-07 16:56 | 48.22902 | 1.47223 | 10001 ft | 281 kts | 79° |
| 2026-05-07 16:57 | 48.23271 | 1.50090 | 10018 ft | 280 kts | 79° |
| 2026-05-07 16:57 | 48.23638 | 1.52956 | 10012 ft | 279 kts | 79° |
| 2026-05-07 16:57 | 48.24041 | 1.55806 | 9988 ft | 279 kts | 71° |
| 2026-05-07 16:57 | 48.25053 | 1.58235 | 9855 ft | 279 kts | 43° |
| 2026-05-07 16:58 | 48.26552 | 1.60165 | 9383 ft | 287 kts | 37° |
| 2026-05-07 16:58 | 48.28141 | 1.62031 | 8838 ft | 293 kts | 36° |
| 2026-05-07 16:58 | 48.29742 | 1.63889 | 8341 ft | 288 kts | 37° |
| 2026-05-07 16:58 | 48.31317 | 1.65726 | 7794 ft | 285 kts | 37° |
| 2026-05-07 16:59 | 48.32873 | 1.67551 | 7262 ft | 282 kts | 37° |
| 2026-05-07 16:59 | 48.34408 | 1.69361 | 6753 ft | 278 kts | 37° |
| 2026-05-07 16:59 | 48.35920 | 1.71152 | 6224 ft | 275 kts | 37° |
| 2026-05-07 16:59 | 48.37409 | 1.72922 | 5678 ft | 272 kts | 37° |
| 2026-05-07 17:00 | 48.38885 | 1.74681 | 5135 ft | 269 kts | 37° |
| 2026-05-07 17:00 | 48.40345 | 1.76421 | 4606 ft | 267 kts | 38° |
| 2026-05-07 17:00 | 48.41794 | 1.78152 | 4059 ft | 264 kts | 38° |
| 2026-05-07 17:00 | 48.43213 | 1.79851 | 3557 ft | 261 kts | 38° |
| 2026-05-07 17:01 | 48.44625 | 1.81541 | 3084 ft | 255 kts | 38° |
| 2026-05-07 17:01 | 48.45952 | 1.83132 | 3035 ft | 231 kts | 38° |
| 2026-05-07 17:01 | 48.47135 | 1.84552 | 2992 ft | 208 kts | 38° |
| 2026-05-07 17:01 | 48.48205 | 1.85837 | 2965 ft | 182 kts | 38° |
| 2026-05-07 17:02 | 48.49135 | 1.86953 | 2976 ft | 170 kts | 38° |
| 2026-05-07 17:02 | 48.50065 | 1.88071 | 2984 ft | 171 kts | 38° |
| 2026-05-07 17:02 | 48.51005 | 1.89201 | 3009 ft | 172 kts | 38° |
| 2026-05-07 17:02 | 48.51945 | 1.90331 | 2977 ft | 177 kts | 38° |
| 2026-05-07 17:03 | 48.52895 | 1.91475 | 2994 ft | 172 kts | 38° |
| 2026-05-07 17:03 | 48.53819 | 1.92588 | 2996 ft | 170 kts | 38° |
| 2026-05-07 17:03 | 48.54752 | 1.93711 | 3015 ft | 173 kts | 38° |
| 2026-05-07 17:03 | 48.55700 | 1.94853 | 2988 ft | 176 kts | 39° |
| 2026-05-07 17:04 | 48.56650 | 1.96000 | 2978 ft | 172 kts | 39° |
| 2026-05-07 17:04 | 48.57566 | 1.97105 | 2982 ft | 167 kts | 38° |
| 2026-05-07 17:04 | 48.58485 | 1.98215 | 2985 ft | 169 kts | 39° |
| 2026-05-07 17:04 | 48.59412 | 1.99335 | 2978 ft | 171 kts | 39° |
| 2026-05-07 17:05 | 48.60343 | 2.00459 | 3003 ft | 172 kts | 39° |
| 2026-05-07 17:05 | 48.61283 | 2.01595 | 2992 ft | 173 kts | 38° |
| 2026-05-07 17:05 | 48.62224 | 2.02732 | 2989 ft | 174 kts | 38° |
| 2026-05-07 17:05 | 48.63166 | 2.03872 | 2977 ft | 174 kts | 39° |
| 2026-05-07 17:06 | 48.64105 | 2.05009 | 2994 ft | 172 kts | 39° |
| 2026-05-07 17:06 | 48.65041 | 2.06142 | 2991 ft | 171 kts | 38° |
| 2026-05-07 17:06 | 48.65966 | 2.07263 | 2994 ft | 169 kts | 38° |
| 2026-05-07 17:06 | 48.66730 | 2.08573 | 2978 ft | 169 kts | 62° |
| 2026-05-07 17:07 | 48.67164 | 2.10226 | 2990 ft | 174 kts | 72° |
| 2026-05-07 17:07 | 48.67501 | 2.11974 | 3011 ft | 171 kts | 72° |
| 2026-05-07 17:07 | 48.67810 | 2.13618 | 2981 ft | 160 kts | 73° |
| 2026-05-07 17:07 | 48.68109 | 2.15211 | 2995 ft | 161 kts | 73° |
| 2026-05-07 17:08 | 48.68411 | 2.16834 | 2998 ft | 159 kts | 73° |
| 2026-05-07 17:08 | 48.68718 | 2.18471 | 2929 ft | 172 kts | 72° |
| 2026-05-07 17:08 | 48.69081 | 2.20331 | 2449 ft | 194 kts | 73° |
| 2026-05-07 17:08 | 48.69409 | 2.22243 | 2273 ft | 181 kts | 76° |
| 2026-05-07 17:09 | 48.69695 | 2.24019 | 1989 ft | 168 kts | 75° |
| 2026-05-07 17:09 | 48.70014 | 2.25703 | 1677 ft | 165 kts | 71° |
| 2026-05-07 17:09 | 48.70349 | 2.27346 | 1403 ft | 163 kts | 71° |
| 2026-05-07 17:09 | 48.70670 | 2.28947 | 1227 ft | 152 kts | 73° |
| 2026-05-07 17:10 | 48.70941 | 2.30408 | 1101 ft | 136 kts | 73° |
| 2026-05-07 17:10 | 48.71201 | 2.31810 | 869 ft | 139 kts | 72° |
| 2026-05-07 17:10 | 48.71472 | 2.33213 | 720 ft | 138 kts | 73° |
| 2026-05-07 17:10 | 48.71719 | 2.34564 | 558 ft | 132 kts | 74° |
| 2026-05-07 17:11 | 48.71951 | 2.35896 | 355 ft | 130 kts | 74° |
| 2026-05-07 17:11 | 48.72100 | 2.36688 | 291 ft | 121 kts | 74° |
| 2026-05-07 17:11 | 48.72268 | 2.37494 | 287 ft | 18 kts | 33° |
| 2026-05-07 17:11 | 48.72342 | 2.37536 | 288 ft | 14 kts | 17° |
| 2026-05-07 17:12 | 48.72357 | 2.37542 | 287 ft | 2 kts | 16° |
| 2026-05-07 17:12 | 48.72401 | 2.37562 | 286 ft | 9 kts | 16° |
| 2026-05-07 17:12 | 48.72462 | 2.37588 | 288 ft | 9 kts | 16° |
| 2026-05-07 17:12 | 48.72521 | 2.37614 | 289 ft | 9 kts | 16° |
| 2026-05-07 17:13 | 48.72576 | 2.37642 | 290 ft | 9 kts | 22° |
| 2026-05-07 17:13 | 48.72642 | 2.37681 | 285 ft | 11 kts | 19° |
| 2026-05-07 17:13 | 48.72710 | 2.37717 | 287 ft | 10 kts | 21° |
| 2026-05-07 17:13 | 48.72776 | 2.37707 | 289 ft | 10 kts | 326° |
| 2026-05-07 17:14 | 48.72825 | 2.37636 | 285 ft | 10 kts | 312° |
| 2026-05-07 17:14 | 48.72864 | 2.37572 | 285 ft | 5 kts | 313° |
| 2026-05-07 17:14 | 48.72872 | 2.37558 | 290 ft | 0 kts | 312° |